createdAt,value
2023-01-18T00:01:04.804Z,12.98
2023-01-18T00:03:36.589Z,12.98
2023-01-18T00:06:04.929Z,13.00
2023-01-18T00:08:33.489Z,12.97
2023-01-18T00:11:09.627Z,12.83
2023-01-18T00:13:36.881Z,12.83
2023-01-18T00:16:10.629Z,12.74
2023-01-18T00:18:38.215Z,12.64
2023-01-18T00:21:07.832Z,12.69
2023-01-18T00:23:35.277Z,12.67
2023-01-18T00:26:07.730Z,12.70
2023-01-18T00:28:34.722Z,12.63
2023-01-18T00:31:01.448Z,12.63
2023-01-18T00:33:28.324Z,12.65
2023-01-18T00:36:01.858Z,12.58
2023-01-18T00:38:30.246Z,12.63
2023-01-18T00:40:57.507Z,12.62
2023-01-18T00:43:39.793Z,12.58
2023-01-18T00:46:14.083Z,12.63
2023-01-18T00:48:42.806Z,12.53
2023-01-18T00:51:12.002Z,12.57
2023-01-18T00:53:39.300Z,12.52
2023-01-18T00:56:11.005Z,12.63
2023-01-18T00:58:38.247Z,12.65
2023-01-18T01:01:07.143Z,12.65
2023-01-18T01:03:54.780Z,12.58
2023-01-18T01:06:45.510Z,12.51
2023-01-18T01:09:18.514Z,12.50
2023-01-18T01:12:04.896Z,12.41
2023-01-18T01:14:52.352Z,12.40
2023-01-18T01:17:37.692Z,12.37
2023-01-18T01:20:23.966Z,12.45
2023-01-18T01:23:09.681Z,12.40
2023-01-18T01:25:56.419Z,12.49
2023-01-18T01:28:23.663Z,12.58
2023-01-18T01:30:50.618Z,12.65
2023-01-18T01:33:18.557Z,12.69
2023-01-18T01:35:45.582Z,12.67
2023-01-18T01:38:12.345Z,12.63
2023-01-18T01:40:39.285Z,12.66
2023-01-18T01:43:12.796Z,12.64
2023-01-18T01:45:40.005Z,12.73
2023-01-18T01:48:10.415Z,12.73
2023-01-18T01:50:40.638Z,12.70
2023-01-18T01:53:10.595Z,12.69
2023-01-18T01:55:39.196Z,12.67
2023-01-18T01:58:22.056Z,12.53
2023-01-18T02:00:48.923Z,12.49
2023-01-18T02:03:20.144Z,12.30
2023-01-18T02:05:51.687Z,12.25
2023-01-18T02:08:22.754Z,12.28
2023-01-18T02:10:50.761Z,12.30
2023-01-18T02:13:20.045Z,12.27
2023-01-18T02:16:10.018Z,12.20
2023-01-18T02:19:10.820Z,12.27
2023-01-18T02:21:44.223Z,12.41
2023-01-18T02:24:44.180Z,12.58
2023-01-18T02:27:26.025Z,12.65
2023-01-18T02:29:52.830Z,12.66
2023-01-18T02:32:27.368Z,12.64
2023-01-18T02:35:19.916Z,12.57
2023-01-18T02:38:01.173Z,12.58
2023-01-18T02:40:42.515Z,12.48
2023-01-18T02:43:31.584Z,12.46
2023-01-18T02:46:18.972Z,12.48
2023-01-18T02:48:48.914Z,12.45
2023-01-18T02:51:15.589Z,12.38
2023-01-18T02:53:44.566Z,12.37
2023-01-18T02:56:16.064Z,12.35
2023-01-18T02:59:11.921Z,12.37
2023-01-18T03:01:41.783Z,12.34
2023-01-18T03:04:24.364Z,12.24
2023-01-18T03:07:08.891Z,12.22
2023-01-18T03:09:35.936Z,12.16
2023-01-18T03:12:46.361Z,12.14
2023-01-18T03:15:24.901Z,11.94
2023-01-18T03:18:06.430Z,11.91
2023-01-18T03:20:37.293Z,11.90
2023-01-18T03:23:27.047Z,11.83
2023-01-18T03:25:56.496Z,11.60
2023-01-18T03:28:41.855Z,11.52
2023-01-18T03:31:31.868Z,11.38
2023-01-18T03:34:04.020Z,11.42
2023-01-18T03:36:40.703Z,11.43
2023-01-18T03:39:13.313Z,11.31
2023-01-18T03:41:45.621Z,11.16
2023-01-18T03:44:20.671Z,11.13
2023-01-18T03:46:47.723Z,11.25
2023-01-18T03:49:16.555Z,11.22
2023-01-18T03:51:56.762Z,11.26
2023-01-18T03:54:35.260Z,11.23
2023-01-18T03:57:22.231Z,11.03
2023-01-18T03:59:49.155Z,11.12
2023-01-18T04:02:17.405Z,11.14
2023-01-18T04:04:44.676Z,11.34
2023-01-18T04:07:11.542Z,11.54
2023-01-18T04:09:38.396Z,11.61
2023-01-18T04:12:05.272Z,11.78
2023-01-18T04:14:32.359Z,11.81
2023-01-18T04:16:59.475Z,11.83
2023-01-18T04:19:28.541Z,11.95
2023-01-18T04:21:55.288Z,11.99
2023-01-18T04:24:22.213Z,11.94
2023-01-18T04:26:49.094Z,11.86
2023-01-18T04:29:15.702Z,11.69
2023-01-18T04:31:42.597Z,11.55
2023-01-18T04:34:09.336Z,11.54
2023-01-18T04:36:36.054Z,11.47
2023-01-18T04:39:02.978Z,11.41
2023-01-18T04:41:29.896Z,11.47
2023-01-18T04:43:56.623Z,11.40
2023-01-18T04:46:23.428Z,11.19
2023-01-18T04:48:51.759Z,11.31
2023-01-18T04:51:19.213Z,11.33
2023-01-18T04:53:46.635Z,11.35
2023-01-18T04:56:13.353Z,11.49
2023-01-18T04:58:40.124Z,11.48
2023-01-18T05:01:09.246Z,11.51
2023-01-18T05:03:38.439Z,11.48
2023-01-18T05:06:11.546Z,11.47
2023-01-18T05:08:42.889Z,11.40
2023-01-18T05:11:15.287Z,11.34
2023-01-18T05:13:43.053Z,11.25
2023-01-18T05:16:15.502Z,11.38
2023-01-18T05:18:43.335Z,11.17
2023-01-18T05:21:10.425Z,11.18
2023-01-18T05:23:39.285Z,11.13
2023-01-18T05:26:14.581Z,11.00
2023-01-18T05:28:42.459Z,10.89
2023-01-18T05:31:09.877Z,10.78
2023-01-18T05:33:36.988Z,10.69
2023-01-18T05:36:04.375Z,10.63
2023-01-18T05:38:31.523Z,10.57
2023-01-18T05:40:58.384Z,10.37
2023-01-18T05:43:28.234Z,10.21
2023-01-18T05:45:55.424Z,10.13
2023-01-18T05:48:22.887Z,10.25
2023-01-18T05:50:50.056Z,10.22
2023-01-18T05:53:20.325Z,10.22
2023-01-18T05:55:58.657Z,10.43
2023-01-18T05:58:27.222Z,10.34
2023-01-18T06:00:54.502Z,10.40
2023-01-18T06:03:21.904Z,10.48
2023-01-18T06:05:49.475Z,10.47
2023-01-18T06:08:16.206Z,10.45
2023-01-18T06:10:43.804Z,10.31
2023-01-18T06:13:11.139Z,10.28
2023-01-18T06:15:37.862Z,10.26
2023-01-18T06:18:05.035Z,10.36
2023-01-18T06:20:31.910Z,10.44
2023-01-18T06:22:58.947Z,10.55
2023-01-18T06:25:29.514Z,10.74
2023-01-18T06:28:00.170Z,10.84
2023-01-18T06:30:27.008Z,11.01
2023-01-18T06:32:53.714Z,11.05
2023-01-18T06:35:21.126Z,11.14
2023-01-18T06:37:48.078Z,11.17
2023-01-18T06:40:15.137Z,11.17
2023-01-18T06:42:41.981Z,11.26
2023-01-18T06:45:09.302Z,11.34
2023-01-18T06:47:36.351Z,11.44
2023-01-18T06:50:03.888Z,11.44
2023-01-18T06:52:30.700Z,11.47
2023-01-18T06:54:57.677Z,11.49
2023-01-18T06:57:25.372Z,11.59
2023-01-18T06:59:53.548Z,11.55
2023-01-18T07:02:21.413Z,11.55
2023-01-18T07:04:48.808Z,11.56
2023-01-18T07:07:15.816Z,11.57
2023-01-18T07:09:42.625Z,11.61
2023-01-18T07:12:09.560Z,11.67
2023-01-18T07:14:36.398Z,11.81
2023-01-18T07:17:03.434Z,11.67
2023-01-18T07:19:30.430Z,11.80
2023-01-18T07:21:57.877Z,11.80
2023-01-18T07:24:24.573Z,11.81
2023-01-18T07:26:51.745Z,11.98
2023-01-18T07:29:18.519Z,12.14
2023-01-18T07:31:45.275Z,12.30
2023-01-18T07:34:15.011Z,12.41
2023-01-18T07:36:42.288Z,12.50
2023-01-18T07:39:10.156Z,12.55
2023-01-18T07:41:37.163Z,12.66
2023-01-18T07:44:05.096Z,12.70
2023-01-18T07:46:31.706Z,12.81
2023-01-18T07:48:58.484Z,12.91
2023-01-18T07:51:25.197Z,12.98
2023-01-18T07:53:55.368Z,12.93
2023-01-18T07:56:26.085Z,13.06
2023-01-18T07:58:53.459Z,13.13
2023-01-18T08:01:22.646Z,13.20
2023-01-18T08:03:50.343Z,13.33
2023-01-18T08:06:25.267Z,13.32
2023-01-18T08:08:57.673Z,13.36
2023-01-18T08:11:24.626Z,13.33
2023-01-18T08:13:52.911Z,13.35
2023-01-18T08:16:20.157Z,13.42
2023-01-18T08:18:50.057Z,13.45
2023-01-18T08:21:16.899Z,13.52
2023-01-18T08:23:43.788Z,13.46
2023-01-18T08:26:10.915Z,13.61
2023-01-18T08:28:38.086Z,13.62
2023-01-18T08:31:17.080Z,13.58
2023-01-18T08:33:47.269Z,13.68
2023-01-18T08:36:17.643Z,13.69
2023-01-18T08:38:49.280Z,13.62
2023-01-18T08:41:15.913Z,13.58
2023-01-18T08:43:43.709Z,13.61
2023-01-18T08:46:13.381Z,13.72
2023-01-18T08:48:40.195Z,13.85
2023-01-18T08:51:06.868Z,13.90
2023-01-18T08:53:33.996Z,14.02
2023-01-18T08:56:05.006Z,14.11
2023-01-18T08:58:33.007Z,14.16
2023-01-18T09:00:59.878Z,14.29
2023-01-18T09:03:26.862Z,14.42
2023-01-18T09:05:54.384Z,14.36
2023-01-18T09:08:22.237Z,14.32
2023-01-18T09:10:49.097Z,14.36
2023-01-18T09:13:15.793Z,14.33
2023-01-18T09:15:43.212Z,14.35
2023-01-18T09:18:10.147Z,14.39
2023-01-18T09:20:37.297Z,14.42
2023-01-18T09:23:09.015Z,14.32
2023-01-18T09:25:37.014Z,14.35
2023-01-18T09:28:05.259Z,14.40
2023-01-18T09:30:33.151Z,14.39
2023-01-18T09:33:01.129Z,14.42
2023-01-18T09:35:28.424Z,14.48
2023-01-18T09:37:55.337Z,14.57
2023-01-18T09:40:26.784Z,14.56
2023-01-18T09:42:56.589Z,14.78
2023-01-18T09:45:35.604Z,14.79
2023-01-18T09:48:12.293Z,14.91
2023-01-18T09:50:45.243Z,15.05
2023-01-18T09:53:44.063Z,15.23
2023-01-18T09:56:13.556Z,15.35
2023-01-18T09:59:02.783Z,15.37
2023-01-18T10:01:33.819Z,15.39
2023-01-18T10:04:01.121Z,15.50
2023-01-18T10:06:50.802Z,15.46
2023-01-18T10:09:31.702Z,15.55
2023-01-18T10:12:03.050Z,15.70
2023-01-18T10:14:41.921Z,15.84
2023-01-18T10:17:19.189Z,16.02
2023-01-18T10:19:49.282Z,16.14
2023-01-18T10:22:33.089Z,16.15
2023-01-18T10:25:10.258Z,16.15
2023-01-18T10:28:01.238Z,16.28
2023-01-18T10:30:33.539Z,16.29
2023-01-18T10:33:03.878Z,16.31
2023-01-18T10:35:36.792Z,16.31
2023-01-18T10:38:12.260Z,16.42
2023-01-18T10:40:40.738Z,16.27
2023-01-18T10:43:15.810Z,16.39
2023-01-18T10:45:42.560Z,16.45
2023-01-18T10:48:18.475Z,16.49
2023-01-18T10:50:50.475Z,16.67
2023-01-18T10:53:24.179Z,16.84
2023-01-18T10:56:07.656Z,16.86
2023-01-18T10:58:42.140Z,16.76
2023-01-18T11:01:16.708Z,16.71
2023-01-18T11:03:53.452Z,16.70
2023-01-18T11:06:21.634Z,16.57
2023-01-18T11:08:49.882Z,16.62
2023-01-18T11:11:53.119Z,16.72
2023-01-18T11:14:27.252Z,16.69
2023-01-18T11:17:11.607Z,16.71
2023-01-18T11:19:39.592Z,16.61
2023-01-18T11:22:16.851Z,16.59
2023-01-18T11:24:43.816Z,16.52
2023-01-18T11:27:16.859Z,16.61
2023-01-18T11:29:46.460Z,16.73
2023-01-18T11:32:24.334Z,16.75
2023-01-18T11:34:56.729Z,16.75
2023-01-18T11:37:43.791Z,16.72
2023-01-18T11:40:19.617Z,16.62
2023-01-18T11:42:48.686Z,16.61
2023-01-18T11:45:26.126Z,16.58
2023-01-18T11:48:17.813Z,16.48
2023-01-18T11:50:55.784Z,16.47
2023-01-18T11:53:50.690Z,16.45
2023-01-18T11:56:41.136Z,16.45
2023-01-18T11:59:36.121Z,16.47
2023-01-18T12:02:25.257Z,16.55
2023-01-18T12:05:17.028Z,16.66
2023-01-18T12:07:50.106Z,16.74
2023-01-18T12:10:30.825Z,16.81
2023-01-18T12:13:34.152Z,16.86
2023-01-18T12:16:21.176Z,16.78
2023-01-18T12:18:57.557Z,16.75
2023-01-18T12:22:16.210Z,16.77
2023-01-18T12:25:18.581Z,16.73
2023-01-18T12:28:17.425Z,16.71
2023-01-18T12:31:05.303Z,16.77
2023-01-18T12:33:50.386Z,16.79
2023-01-18T12:36:38.787Z,16.82
2023-01-18T12:39:17.796Z,16.86
2023-01-18T12:42:10.972Z,16.93
2023-01-18T12:44:58.209Z,16.93
2023-01-18T12:47:52.976Z,17.00
2023-01-18T12:50:28.288Z,17.00
2023-01-18T12:53:00.616Z,16.99
2023-01-18T12:55:32.129Z,17.07
2023-01-18T12:58:01.733Z,16.98
2023-01-18T13:00:36.389Z,17.01
2023-01-18T13:03:19.294Z,17.02
2023-01-18T13:06:04.226Z,17.01
2023-01-18T13:08:46.479Z,17.08
2023-01-18T13:11:36.030Z,17.00
2023-01-18T13:14:19.662Z,16.88
2023-01-18T13:16:51.439Z,16.92
2023-01-18T13:19:25.915Z,16.85
2023-01-18T13:22:11.375Z,16.77
2023-01-18T13:25:43.033Z,16.74
2023-01-18T13:28:20.652Z,16.75
2023-01-18T13:30:56.594Z,16.69
2023-01-18T13:33:27.114Z,16.61
2023-01-18T13:35:58.960Z,16.58
2023-01-18T13:38:40.615Z,16.55
2023-01-18T13:41:13.408Z,16.56
2023-01-18T13:43:41.557Z,16.52
2023-01-18T13:46:08.331Z,16.57
2023-01-18T13:48:57.719Z,16.55
2023-01-18T13:51:33.447Z,16.49
2023-01-18T13:54:00.471Z,16.37
2023-01-18T13:56:29.383Z,16.36
2023-01-18T13:59:04.164Z,16.35
2023-01-18T14:01:36.959Z,16.39
2023-01-18T14:04:24.090Z,16.37
2023-01-18T14:06:53.628Z,16.34
2023-01-18T14:09:50.336Z,16.14
2023-01-18T14:12:50.561Z,16.18
2023-01-18T14:15:43.887Z,16.09
2023-01-18T14:18:27.057Z,16.13
2023-01-18T14:21:12.854Z,16.09
2023-01-18T14:24:00.316Z,16.08
2023-01-18T14:26:29.408Z,16.04
2023-01-18T14:29:01.425Z,15.93
2023-01-18T14:31:34.288Z,15.88
2023-01-18T14:34:26.002Z,15.94
2023-01-18T14:36:54.690Z,15.94
2023-01-18T14:39:22.537Z,15.95
2023-01-18T14:41:52.821Z,15.91
2023-01-18T14:44:31.238Z,15.86
2023-01-18T14:46:59.076Z,15.82
2023-01-18T14:49:29.948Z,15.73
2023-01-18T14:52:01.758Z,15.60
2023-01-18T14:54:29.672Z,15.59
2023-01-18T14:57:09.235Z,15.46
2023-01-18T14:59:36.136Z,15.31
2023-01-18T15:02:16.647Z,15.32
2023-01-18T15:04:47.495Z,15.38
2023-01-18T15:07:19.538Z,15.40
2023-01-18T15:09:50.142Z,15.47
2023-01-18T15:12:21.917Z,15.50
2023-01-18T15:14:50.037Z,15.55
2023-01-18T15:17:23.770Z,15.49
2023-01-18T15:19:56.785Z,15.49
2023-01-18T15:22:32.210Z,15.42
2023-01-18T15:25:00.834Z,15.41
2023-01-18T15:27:32.045Z,15.42
2023-01-18T15:30:01.313Z,15.36
2023-01-18T15:32:34.113Z,15.35
2023-01-18T15:35:03.296Z,15.26
2023-01-18T15:37:37.945Z,15.24
2023-01-18T15:40:23.778Z,15.19
2023-01-18T15:43:14.693Z,15.10
2023-01-18T15:45:49.621Z,15.02
2023-01-18T15:48:22.816Z,14.98
2023-01-18T15:50:56.596Z,14.94
2023-01-18T15:53:33.045Z,14.92
2023-01-18T15:56:03.745Z,14.83
2023-01-18T15:58:46.420Z,14.72
2023-01-18T16:01:13.515Z,14.68
2023-01-18T16:03:54.174Z,14.62
2023-01-18T16:06:21.237Z,14.48
2023-01-18T16:09:03.489Z,14.29
2023-01-18T16:11:46.092Z,14.31
2023-01-18T16:14:46.436Z,14.17
2023-01-18T16:17:20.074Z,14.15
2023-01-18T16:19:52.439Z,14.12
2023-01-18T16:22:27.574Z,14.12
2023-01-18T16:25:03.112Z,14.14
2023-01-18T16:27:33.025Z,14.14
2023-01-18T16:30:17.570Z,14.16
2023-01-18T16:32:44.493Z,14.16
2023-01-18T16:35:18.108Z,14.13
2023-01-18T16:37:45.049Z,14.29
2023-01-18T16:40:19.442Z,14.40
2023-01-18T16:43:26.897Z,14.44
2023-01-18T16:45:56.559Z,14.42
2023-01-18T16:48:26.231Z,14.40
2023-01-18T16:50:55.916Z,14.40
2023-01-18T16:53:23.054Z,14.38
2023-01-18T16:55:49.898Z,14.30
2023-01-18T16:58:19.020Z,14.35
2023-01-18T17:01:00.307Z,14.33
2023-01-18T17:03:27.788Z,14.24
2023-01-18T17:05:55.680Z,14.24
2023-01-18T17:08:22.912Z,14.18
2023-01-18T17:10:51.551Z,14.06
2023-01-18T17:13:18.442Z,14.07
2023-01-18T17:15:45.714Z,14.08
2023-01-18T17:18:18.101Z,14.04
2023-01-18T17:20:45.039Z,13.94
2023-01-18T17:23:12.332Z,13.94
2023-01-18T17:25:39.134Z,13.90
2023-01-18T17:28:06.525Z,13.86
2023-01-18T17:30:33.633Z,13.84
2023-01-18T17:33:03.777Z,13.81
2023-01-18T17:35:32.295Z,13.78
2023-01-18T17:38:06.154Z,13.69
2023-01-18T17:40:43.487Z,13.68
2023-01-18T17:43:22.186Z,13.63
2023-01-18T17:46:00.739Z,13.56
2023-01-18T17:48:28.686Z,13.56
2023-01-18T17:50:56.297Z,13.50
2023-01-18T17:53:23.061Z,13.50
2023-01-18T17:55:50.208Z,13.35
2023-01-18T17:58:17.010Z,13.39
2023-01-18T18:00:43.771Z,13.35
2023-01-18T18:03:10.618Z,13.41
2023-01-18T18:05:37.357Z,13.46
2023-01-18T18:08:04.301Z,13.46
2023-01-18T18:10:31.304Z,13.39
2023-01-18T18:13:02.125Z,13.45
2023-01-18T18:15:29.099Z,13.43
2023-01-18T18:17:55.723Z,13.41
2023-01-18T18:20:23.763Z,13.50
2023-01-18T18:22:50.885Z,13.46
2023-01-18T18:25:19.068Z,13.49
2023-01-18T18:27:47.007Z,13.40
2023-01-18T18:30:15.193Z,13.36
2023-01-18T18:32:41.944Z,13.39
2023-01-18T18:35:24.235Z,13.24
2023-01-18T18:37:51.924Z,13.26
2023-01-18T18:40:19.310Z,13.21
2023-01-18T18:42:59.954Z,13.28
2023-01-18T18:45:31.107Z,13.33
2023-01-18T18:47:58.144Z,13.16
2023-01-18T18:50:25.127Z,13.19
2023-01-18T18:52:52.244Z,13.24
2023-01-18T18:55:19.415Z,13.24
2023-01-18T18:57:46.305Z,13.19
2023-01-18T19:00:14.211Z,13.14
2023-01-18T19:02:40.802Z,13.19
2023-01-18T19:05:08.251Z,13.18
2023-01-18T19:07:35.376Z,13.20
2023-01-18T19:10:02.605Z,13.13
2023-01-18T19:12:30.022Z,13.11
2023-01-18T19:14:57.050Z,13.05
2023-01-18T19:17:30.427Z,12.95
2023-01-18T19:19:57.974Z,12.88
2023-01-18T19:22:24.788Z,12.88
2023-01-18T19:24:51.638Z,12.95
2023-01-18T19:27:18.442Z,12.97
2023-01-18T19:29:45.510Z,13.00
2023-01-18T19:32:12.330Z,12.98
2023-01-18T19:34:39.360Z,12.96
2023-01-18T19:37:06.904Z,12.97
2023-01-18T19:39:35.088Z,12.88
2023-01-18T19:42:02.635Z,12.84
2023-01-18T19:44:29.627Z,12.79
2023-01-18T19:46:57.259Z,12.81
2023-01-18T19:49:26.565Z,12.82
2023-01-18T19:51:54.674Z,12.88
2023-01-18T19:54:22.208Z,12.88
2023-01-18T19:56:49.078Z,12.91
2023-01-18T19:59:16.370Z,13.05
2023-01-18T20:01:43.517Z,13.13
2023-01-18T20:04:10.949Z,13.14
2023-01-18T20:06:38.506Z,13.15
2023-01-18T20:09:17.797Z,13.17
2023-01-18T20:11:45.141Z,13.26
2023-01-18T20:14:13.447Z,13.32
2023-01-18T20:16:40.292Z,13.39
2023-01-18T20:19:07.216Z,13.39
2023-01-18T20:21:34.137Z,13.30
2023-01-18T20:24:01.076Z,13.20
2023-01-18T20:26:36.392Z,13.25
2023-01-18T20:29:07.648Z,13.17
2023-01-18T20:31:35.986Z,13.18
2023-01-18T20:34:03.186Z,13.20
2023-01-18T20:36:30.531Z,13.17
2023-01-18T20:38:57.410Z,13.17
2023-01-18T20:41:24.402Z,13.21
2023-01-18T20:43:51.473Z,13.18
2023-01-18T20:46:18.349Z,13.27
2023-01-18T20:48:45.023Z,13.22
2023-01-18T20:51:14.975Z,13.11
2023-01-18T20:53:43.959Z,13.06
2023-01-18T20:56:27.839Z,13.09
2023-01-18T20:58:55.402Z,13.09
2023-01-18T21:01:22.222Z,13.04
2023-01-18T21:03:55.112Z,12.98
2023-01-18T21:06:21.947Z,12.92
2023-01-18T21:08:52.749Z,12.94
2023-01-18T21:11:23.086Z,12.90
2023-01-18T21:13:50.268Z,12.94
2023-01-18T21:16:17.887Z,12.90
2023-01-18T21:18:45.653Z,12.79
2023-01-18T21:21:13.401Z,12.72
2023-01-18T21:23:40.628Z,12.71
2023-01-18T21:26:12.196Z,12.73
2023-01-18T21:28:39.815Z,12.69
2023-01-18T21:31:07.571Z,12.69
2023-01-18T21:33:35.014Z,12.61
2023-01-18T21:36:12.013Z,12.60
2023-01-18T21:38:39.004Z,12.62
2023-01-18T21:41:25.281Z,12.64
2023-01-18T21:44:12.577Z,12.77
2023-01-18T21:46:45.733Z,12.77
2023-01-18T21:49:47.072Z,12.80
2023-01-18T21:52:38.166Z,12.83
2023-01-18T21:55:05.527Z,12.79
2023-01-18T21:57:32.652Z,12.81
2023-01-18T21:59:59.688Z,12.78
2023-01-18T22:02:26.740Z,12.84
2023-01-18T22:05:00.254Z,12.80
2023-01-18T22:07:28.148Z,12.71
2023-01-18T22:10:04.045Z,12.73
2023-01-18T22:12:33.541Z,12.60
2023-01-18T22:15:02.211Z,12.60
2023-01-18T22:17:28.990Z,12.64
2023-01-18T22:19:55.778Z,12.65
2023-01-18T22:22:22.841Z,12.67
2023-01-18T22:24:49.498Z,12.62
2023-01-18T22:27:16.463Z,12.60
2023-01-18T22:29:43.259Z,12.57
2023-01-18T22:32:10.004Z,12.55
2023-01-18T22:34:36.973Z,12.60
2023-01-18T22:37:04.091Z,12.61
2023-01-18T22:39:30.817Z,12.56
2023-01-18T22:41:57.648Z,12.59
2023-01-18T22:44:24.401Z,12.63
2023-01-18T22:46:51.154Z,12.67
2023-01-18T22:49:17.983Z,12.61
2023-01-18T22:51:44.926Z,12.59
2023-01-18T22:54:11.581Z,12.58
2023-01-18T22:56:38.300Z,12.51
2023-01-18T22:59:04.913Z,12.45
2023-01-18T23:01:32.926Z,12.49
2023-01-18T23:04:03.116Z,12.53
2023-01-18T23:06:45.774Z,12.44
2023-01-18T23:09:13.958Z,12.37
2023-01-18T23:11:40.995Z,12.26
2023-01-18T23:14:26.513Z,12.19
2023-01-18T23:17:12.190Z,12.11
2023-01-18T23:19:38.995Z,12.03
2023-01-18T23:22:08.760Z,11.85
2023-01-18T23:24:36.664Z,11.68
2023-01-18T23:27:04.620Z,11.59
2023-01-18T23:29:38.868Z,11.37
2023-01-18T23:32:06.756Z,11.20
2023-01-18T23:34:33.349Z,11.21
2023-01-18T23:37:00.124Z,11.19
2023-01-18T23:39:45.283Z,11.15
2023-01-18T23:42:30.746Z,11.07
2023-01-18T23:45:16.420Z,11.00
2023-01-18T23:48:02.225Z,11.11
2023-01-18T23:50:47.785Z,11.24
2023-01-18T23:53:33.112Z,11.44
2023-01-18T23:56:00.513Z,11.69
2023-01-18T23:58:28.163Z,11.90
